CMA CGM Kingfish — A8YW9 — position and weather

sailwx.info

Track history (hours):
 
Tides and Currents Weather Stations Pressure Air Temp Water Temp Dewpoint Dewpoint Depression Visibility Wind Speed Wind Dir Waves Ship Positions

CMA CGM Kingfish

Last reported at 2016-Aug-04 06:29 UTC. Time now 2016-Aug-23 21:09 UTC.
Position N 27°04' W 079°47'.
Warning: this ship's position is 19 days out of date.

Length 294 m; draft 11.8 m.

Type: Ship (hazmat cat A). MMSI: 636015147.

Date/timePositionNaut miles runAvg speedWind from/ knotsBaromVisibWave heightAir tempDewpointWater temp
2016-Aug-04 06:29N 27°04' W 079°47'3015.8
2016-Aug-04 04:33N 26°33' W 079°47'1515.4
2016-Aug-04 03:34N 26°18' W 079°49'1515.2
2016-Aug-04 02:34N 26°04' W 079°56'1414.1
2016-Aug-04 01:33N 25°51' W 080°02'8 6.0
2016-Aug-04 00:09N 25°46' W 080°10'1 1.4
2016-Aug-03 23:33N 25°46' W 080°09'0 0.0
2016-Aug-03 22:32N 25°46' W 080°09'0 0.0
2016-Aug-03 21:32N 25°46' W 080°09'0 0.0
2016-Aug-03 20:29N 25°46' W 080°09'0 0.0
2016-Aug-03 19:32N 25°46' W 080°09'0 0.0
2016-Aug-03 18:32N 25°46' W 080°09'0 0.0
2016-Aug-03 17:32N 25°46' W 080°09'0 0.0
2016-Aug-03 16:23N 25°46' W 080°09'0 0.0
2016-Aug-03 15:26N 25°46' W 080°09'0 0.0
2016-Aug-03 14:26N 25°46' W 080°09'0 0.0
2016-Aug-03 13:11N 25°46' W 080°09'0 0.0
2016-Aug-03 12:29N 25°46' W 080°09'0 0.1
2016-Aug-03 11:33N 25°46' W 080°09'5 5.4
2016-Aug-03 10:33N 25°46' W 080°03'5 4.5
2016-Aug-03 09:33N 25°42' W 080°01'1616.0
2016-Aug-03 08:33N 25°26' W 080°01'  
2016-Jul-30 08:07N 29°21' W 094°42'610.8
2016-Jul-30 07:33N 29°23' W 094°49'1211.6
2016-Jul-30 06:31N 29°34' W 094°55'6 5.8
2016-Jul-30 05:33N 29°37' W 095°01'0 0.0
2016-Jul-30 04:32N 29°37' W 095°01'0 0.0
2016-Jul-30 03:20N 29°37' W 095°01'0 0.0
2016-Jul-30 02:11N 29°37' W 095°01'0 0.0
2016-Jul-30 01:11N 29°37' W 095°01'0 0.0
2016-Jul-30 00:32N 29°37' W 095°01'0 0.0
2016-Jul-29 19:17N 29°37' W 095°01'0 0.0
2016-Jul-29 18:29N 29°37' W 095°01'0 0.0
2016-Jul-29 17:32N 29°37' W 095°01'0 0.0
2016-Jul-29 15:32N 29°37' W 095°01'0 0.0
2016-Jul-29 13:14N 29°37' W 095°01'0 0.0
2016-Jul-29 10:26N 29°37' W 095°01'1 1.6
2016-Jul-29 09:33N 29°37' W 094°59'9 9.0
2016-Jul-29 08:33N 29°30' W 094°52'1212.0
2016-Jul-29 07:31N 29°21' W 094°43'  
Track history (hours):
 
Tides and Currents Weather Stations Pressure Air Temp Water Temp Dewpoint Dewpoint Depression Visibility Wind Speed Wind Dir Waves Ship Positions

CMA CGM Kingfish

Last reported at 2016-Aug-04 06:29 UTC. Time now 2016-Aug-23 21:09 UTC.
Position N 27°04' W 079°47'.
Warning: this ship's position is 19 days out of date.

Length 294 m; draft 11.8 m.

Type: Ship (hazmat cat A). MMSI: 636015147.

Date/timePositionNaut miles runAvg speedWind from/ knotsBaromVisibWave heightAir tempDewpointWater temp
2016-Aug-04 06:29N 27°04' W 079°47'3015.8
2016-Aug-04 04:33N 26°33' W 079°47'1515.4
2016-Aug-04 03:34N 26°18' W 079°49'1515.2
2016-Aug-04 02:34N 26°04' W 079°56'1414.1
2016-Aug-04 01:33N 25°51' W 080°02'8 6.0
2016-Aug-04 00:09N 25°46' W 080°10'1 1.4
2016-Aug-03 23:33N 25°46' W 080°09'0 0.0
2016-Aug-03 22:32N 25°46' W 080°09'0 0.0
2016-Aug-03 21:32N 25°46' W 080°09'0 0.0
2016-Aug-03 20:29N 25°46' W 080°09'0 0.0
2016-Aug-03 19:32N 25°46' W 080°09'0 0.0
2016-Aug-03 18:32N 25°46' W 080°09'0 0.0
2016-Aug-03 17:32N 25°46' W 080°09'0 0.0
2016-Aug-03 16:23N 25°46' W 080°09'0 0.0
2016-Aug-03 15:26N 25°46' W 080°09'0 0.0
2016-Aug-03 14:26N 25°46' W 080°09'0 0.0
2016-Aug-03 13:11N 25°46' W 080°09'0 0.0
2016-Aug-03 12:29N 25°46' W 080°09'0 0.1
2016-Aug-03 11:33N 25°46' W 080°09'5 5.4
2016-Aug-03 10:33N 25°46' W 080°03'5 4.5
2016-Aug-03 09:33N 25°42' W 080°01'1616.0
2016-Aug-03 08:33N 25°26' W 080°01'  
2016-Jul-30 08:07N 29°21' W 094°42'610.8
2016-Jul-30 07:33N 29°23' W 094°49'1211.6
2016-Jul-30 06:31N 29°34' W 094°55'6 5.8
2016-Jul-30 05:33N 29°37' W 095°01'0 0.0
2016-Jul-30 04:32N 29°37' W 095°01'0 0.0
2016-Jul-30 03:20N 29°37' W 095°01'0 0.0
2016-Jul-30 02:11N 29°37' W 095°01'0 0.0
2016-Jul-30 01:11N 29°37' W 095°01'0 0.0
2016-Jul-30 00:32N 29°37' W 095°01'0 0.0
2016-Jul-29 19:17N 29°37' W 095°01'0 0.0
2016-Jul-29 18:29N 29°37' W 095°01'0 0.0
2016-Jul-29 17:32N 29°37' W 095°01'0 0.0
2016-Jul-29 15:32N 29°37' W 095°01'0 0.0
2016-Jul-29 13:14N 29°37' W 095°01'0 0.0
2016-Jul-29 10:26N 29°37' W 095°01'1 1.6
2016-Jul-29 09:33N 29°37' W 094°59'9 9.0
2016-Jul-29 08:33N 29°30' W 094°52'1212.0
2016-Jul-29 07:31N 29°21' W 094°43'  

Dump ship's entire track history